sensor_id;sensor_type;location;lat;lon;timestamp;temperature;humidity
45319;DHT22;31057;48.498;32.260;2023-09-08T00:01:40;11.30;99.30
45319;DHT22;31057;48.498;32.260;2023-09-08T00:03:42;11.40;99.30
45319;DHT22;31057;48.498;32.260;2023-09-08T00:05:44;11.30;99.40
45319;DHT22;31057;48.498;32.260;2023-09-08T00:07:46;11.30;99.50
45319;DHT22;31057;48.498;32.260;2023-09-08T00:09:48;11.30;99.50
45319;DHT22;31057;48.498;32.260;2023-09-08T00:11:50;11.20;99.60
45319;DHT22;31057;48.498;32.260;2023-09-08T00:13:51;11.20;99.70
45319;DHT22;31057;48.498;32.260;2023-09-08T00:15:53;11.20;99.80
45319;DHT22;31057;48.498;32.260;2023-09-08T00:17:55;11.20;99.90
45319;DHT22;31057;48.498;32.260;2023-09-08T00:19:59;11.10;99.90
45319;DHT22;31057;48.498;32.260;2023-09-08T00:22:00;11.10;99.90
45319;DHT22;31057;48.498;32.260;2023-09-08T00:24:03;11.20;99.90
45319;DHT22;31057;48.498;32.260;2023-09-08T00:26:05;11.20;99.90
45319;DHT22;31057;48.498;32.260;2023-09-08T00:28:08;11.10;99.90
45319;DHT22;31057;48.498;32.260;2023-09-08T00:30:10;11.10;99.90
45319;DHT22;31057;48.498;32.260;2023-09-08T00:32:12;11.10;99.90
45319;DHT22;31057;48.498;32.260;2023-09-08T00:34:14;11.00;99.90
45319;DHT22;31057;48.498;32.260;2023-09-08T00:36:15;11.00;99.90
45319;DHT22;31057;48.498;32.260;2023-09-08T00:38:17;11.00;99.90
45319;DHT22;31057;48.498;32.260;2023-09-08T00:40:19;10.90;99.90
45319;DHT22;31057;48.498;32.260;2023-09-08T00:42:21;10.90;99.90
45319;DHT22;31057;48.498;32.260;2023-09-08T00:44:23;10.80;99.90
45319;DHT22;31057;48.498;32.260;2023-09-08T00:46:25;10.90;99.90
45319;DHT22;31057;48.498;32.260;2023-09-08T00:48:29;10.90;99.90
45319;DHT22;31057;48.498;32.260;2023-09-08T00:50:31;10.70;99.90
45319;DHT22;31057;48.498;32.260;2023-09-08T00:52:32;10.80;99.90
45319;DHT22;31057;48.498;32.260;2023-09-08T00:54:35;10.70;99.90
45319;DHT22;31057;48.498;32.260;2023-09-08T00:56:37;10.80;99.90
45319;DHT22;31057;48.498;32.260;2023-09-08T00:58:40;10.70;99.90
45319;DHT22;31057;48.498;32.260;2023-09-08T01:00:42;10.70;99.90
45319;DHT22;31057;48.498;32.260;2023-09-08T01:02:44;10.70;99.90
45319;DHT22;31057;48.498;32.260;2023-09-08T01:04:46;10.70;99.90
45319;DHT22;31057;48.498;32.260;2023-09-08T01:06:49;10.70;99.90
45319;DHT22;31057;48.498;32.260;2023-09-08T01:08:51;10.70;99.90
45319;DHT22;31057;48.498;32.260;2023-09-08T01:10:53;10.60;99.90
45319;DHT22;31057;48.498;32.260;2023-09-08T01:12:55;10.60;99.90
45319;DHT22;31057;48.498;32.260;2023-09-08T01:14:57;10.60;99.90
45319;DHT22;31057;48.498;32.260;2023-09-08T01:16:59;10.50;99.90
45319;DHT22;31057;48.498;32.260;2023-09-08T01:19:01;10.40;99.90
45319;DHT22;31057;48.498;32.260;2023-09-08T01:23:21;10.50;99.90
45319;DHT22;31057;48.498;32.260;2023-09-08T01:25:26;10.40;99.90
45319;DHT22;31057;48.498;32.260;2023-09-08T01:27:28;10.50;99.90
45319;DHT22;31057;48.498;32.260;2023-09-08T01:29:31;10.40;99.90
45319;DHT22;31057;48.498;32.260;2023-09-08T01:31:33;10.40;99.90
45319;DHT22;31057;48.498;32.260;2023-09-08T01:33:35;10.40;99.90
45319;DHT22;31057;48.498;32.260;2023-09-08T01:35:37;10.40;99.90
45319;DHT22;31057;48.498;32.260;2023-09-08T01:37:40;10.50;99.90
45319;DHT22;31057;48.498;32.260;2023-09-08T01:39:42;10.50;99.90
45319;DHT22;31057;48.498;32.260;2023-09-08T01:41:44;10.40;99.90
45319;DHT22;31057;48.498;32.260;2023-09-08T01:43:46;10.50;99.90
45319;DHT22;31057;48.498;32.260;2023-09-08T01:45:48;10.50;99.90
45319;DHT22;31057;48.498;32.260;2023-09-08T01:47:49;10.50;99.90
45319;DHT22;31057;48.498;32.260;2023-09-08T01:49:51;10.50;99.90
45319;DHT22;31057;48.498;32.260;2023-09-08T01:51:53;10.60;99.90
45319;DHT22;31057;48.498;32.260;2023-09-08T01:53:55;10.60;99.90
45319;DHT22;31057;48.498;32.260;2023-09-08T01:55:57;10.50;99.90
45319;DHT22;31057;48.498;32.260;2023-09-08T01:57:59;10.50;99.90
45319;DHT22;31057;48.498;32.260;2023-09-08T02:00:01;10.50;99.90
45319;DHT22;31057;48.498;32.260;2023-09-08T02:02:03;10.40;99.90
45319;DHT22;31057;48.498;32.260;2023-09-08T02:04:05;10.40;99.90
45319;DHT22;31057;48.498;32.260;2023-09-08T02:06:07;10.50;99.90
45319;DHT22;31057;48.498;32.260;2023-09-08T02:08:09;10.40;99.90
45319;DHT22;31057;48.498;32.260;2023-09-08T02:10:12;10.40;99.90
45319;DHT22;31057;48.498;32.260;2023-09-08T02:12:14;10.30;99.90
45319;DHT22;31057;48.498;32.260;2023-09-08T02:14:16;10.30;99.90
45319;DHT22;31057;48.498;32.260;2023-09-08T02:16:18;10.30;99.90
45319;DHT22;31057;48.498;32.260;2023-09-08T02:18:19;10.20;99.90
45319;DHT22;31057;48.498;32.260;2023-09-08T02:20:21;10.20;99.90
45319;DHT22;31057;48.498;32.260;2023-09-08T02:22:23;10.20;99.90
45319;DHT22;31057;48.498;32.260;2023-09-08T02:24:25;10.20;99.90
45319;DHT22;31057;48.498;32.260;2023-09-08T02:26:27;10.20;99.90
45319;DHT22;31057;48.498;32.260;2023-09-08T02:28:29;10.10;99.90
45319;DHT22;31057;48.498;32.260;2023-09-08T02:30:31;10.10;99.90
45319;DHT22;31057;48.498;32.260;2023-09-08T02:32:33;10.10;99.90
45319;DHT22;31057;48.498;32.260;2023-09-08T02:34:35;10.00;99.90
45319;DHT22;31057;48.498;32.260;2023-09-08T02:36:40;10.00;99.90
45319;DHT22;31057;48.498;32.260;2023-09-08T02:38:44;9.90;99.90
45319;DHT22;31057;48.498;32.260;2023-09-08T02:40:46;9.90;99.90
45319;DHT22;31057;48.498;32.260;2023-09-08T02:42:48;9.90;99.90
45319;DHT22;31057;48.498;32.260;2023-09-08T02:44:50;9.90;99.90
45319;DHT22;31057;48.498;32.260;2023-09-08T02:46:52;9.90;99.90
45319;DHT22;31057;48.498;32.260;2023-09-08T02:48:54;9.80;99.90
45319;DHT22;31057;48.498;32.260;2023-09-08T02:50:56;9.80;99.90
45319;DHT22;31057;48.498;32.260;2023-09-08T02:52:58;9.80;99.90
45319;DHT22;31057;48.498;32.260;2023-09-08T02:54:59;9.80;99.90
45319;DHT22;31057;48.498;32.260;2023-09-08T02:57:01;9.80;99.90
45319;DHT22;31057;48.498;32.260;2023-09-08T02:59:03;9.80;99.90
45319;DHT22;31057;48.498;32.260;2023-09-08T03:01:12;9.80;99.90
45319;DHT22;31057;48.498;32.260;2023-09-08T03:03:15;9.80;99.90
45319;DHT22;31057;48.498;32.260;2023-09-08T03:05:17;9.80;99.90
45319;DHT22;31057;48.498;32.260;2023-09-08T03:07:19;9.70;99.90
45319;DHT22;31057;48.498;32.260;2023-09-08T03:09:20;9.70;99.90
45319;DHT22;31057;48.498;32.260;2023-09-08T03:11:22;9.80;99.90
45319;DHT22;31057;48.498;32.260;2023-09-08T03:13:24;9.70;99.90
45319;DHT22;31057;48.498;32.260;2023-09-08T03:15:27;9.70;99.90
45319;DHT22;31057;48.498;32.260;2023-09-08T03:17:30;9.70;99.90
45319;DHT22;31057;48.498;32.260;2023-09-08T03:19:31;9.70;99.90
45319;DHT22;31057;48.498;32.260;2023-09-08T03:21:33;9.70;99.90
45319;DHT22;31057;48.498;32.260;2023-09-08T03:23:38;9.70;99.90
45319;DHT22;31057;48.498;32.260;2023-09-08T03:25:40;9.80;99.90
45319;DHT22;31057;48.498;32.260;2023-09-08T03:27:42;9.80;99.90
45319;DHT22;31057;48.498;32.260;2023-09-08T03:29:44;9.80;99.90
45319;DHT22;31057;48.498;32.260;2023-09-08T03:31:46;9.80;99.90
45319;DHT22;31057;48.498;32.260;2023-09-08T03:33:48;9.80;99.90
45319;DHT22;31057;48.498;32.260;2023-09-08T03:35:50;9.70;99.90
45319;DHT22;31057;48.498;32.260;2023-09-08T03:37:51;9.70;99.90
45319;DHT22;31057;48.498;32.260;2023-09-08T03:39:53;9.70;99.90
45319;DHT22;31057;48.498;32.260;2023-09-08T03:41:55;9.70;99.90
45319;DHT22;31057;48.498;32.260;2023-09-08T03:43:57;9.70;99.90
45319;DHT22;31057;48.498;32.260;2023-09-08T03:45:59;9.70;99.90
45319;DHT22;31057;48.498;32.260;2023-09-08T03:48:01;9.80;99.90
45319;DHT22;31057;48.498;32.260;2023-09-08T03:50:03;9.80;99.90
45319;DHT22;31057;48.498;32.260;2023-09-08T03:52:05;9.90;99.90
45319;DHT22;31057;48.498;32.260;2023-09-08T03:54:06;9.80;99.90
45319;DHT22;31057;48.498;32.260;2023-09-08T03:56:08;9.80;99.90
45319;DHT22;31057;48.498;32.260;2023-09-08T03:58:10;9.80;99.90
45319;DHT22;31057;48.498;32.260;2023-09-08T04:00:12;9.90;99.90
45319;DHT22;31057;48.498;32.260;2023-09-08T04:02:14;9.90;99.90
45319;DHT22;31057;48.498;32.260;2023-09-08T04:04:16;10.10;99.90
45319;DHT22;31057;48.498;32.260;2023-09-08T04:06:19;10.10;99.90
45319;DHT22;31057;48.498;32.260;2023-09-08T04:08:24;10.10;99.90
45319;DHT22;31057;48.498;32.260;2023-09-08T04:10:26;10.10;99.90
45319;DHT22;31057;48.498;32.260;2023-09-08T04:12:28;10.20;99.90
45319;DHT22;31057;48.498;32.260;2023-09-08T04:14:30;10.30;99.90
45319;DHT22;31057;48.498;32.260;2023-09-08T04:16:32;10.30;99.90
45319;DHT22;31057;48.498;32.260;2023-09-08T04:18:33;10.30;99.90
45319;DHT22;31057;48.498;32.260;2023-09-08T04:20:35;10.30;99.90
45319;DHT22;31057;48.498;32.260;2023-09-08T04:22:40;10.40;99.90
45319;DHT22;31057;48.498;32.260;2023-09-08T04:24:42;10.30;99.90
45319;DHT22;31057;48.498;32.260;2023-09-08T04:26:44;10.30;99.90
45319;DHT22;31057;48.498;32.260;2023-09-08T04:28:45;10.40;99.90
45319;DHT22;31057;48.498;32.260;2023-09-08T04:30:47;10.50;99.90
45319;DHT22;31057;48.498;32.260;2023-09-08T04:32:49;10.60;99.90
45319;DHT22;31057;48.498;32.260;2023-09-08T04:34:51;10.50;99.90
45319;DHT22;31057;48.498;32.260;2023-09-08T04:36:53;10.50;99.90
45319;DHT22;31057;48.498;32.260;2023-09-08T04:38:55;10.50;99.90
45319;DHT22;31057;48.498;32.260;2023-09-08T04:40:57;10.70;99.90
45319;DHT22;31057;48.498;32.260;2023-09-08T04:42:59;10.60;99.90
45319;DHT22;31057;48.498;32.260;2023-09-08T04:45:01;10.70;99.90
45319;DHT22;31057;48.498;32.260;2023-09-08T04:47:03;10.70;99.90
45319;DHT22;31057;48.498;32.260;2023-09-08T04:49:05;10.80;99.90
45319;DHT22;31057;48.498;32.260;2023-09-08T04:51:07;10.90;99.90
45319;DHT22;31057;48.498;32.260;2023-09-08T04:53:09;10.90;99.90
45319;DHT22;31057;48.498;32.260;2023-09-08T04:55:11;11.10;99.90
45319;DHT22;31057;48.498;32.260;2023-09-08T04:57:13;11.20;99.90
45319;DHT22;31057;48.498;32.260;2023-09-08T04:59:24;11.20;99.90
45319;DHT22;31057;48.498;32.260;2023-09-08T05:01:29;11.40;99.90
45319;DHT22;31057;48.498;32.260;2023-09-08T05:03:34;11.40;99.90
45319;DHT22;31057;48.498;32.260;2023-09-08T05:05:36;11.40;99.90
45319;DHT22;31057;48.498;32.260;2023-09-08T05:07:38;11.60;99.90
45319;DHT22;31057;48.498;32.260;2023-09-08T05:09:40;11.60;99.90
45319;DHT22;31057;48.498;32.260;2023-09-08T05:11:42;11.60;99.90
45319;DHT22;31057;48.498;32.260;2023-09-08T05:13:44;11.80;99.90
45319;DHT22;31057;48.498;32.260;2023-09-08T05:15:46;11.90;99.90
45319;DHT22;31057;48.498;32.260;2023-09-08T05:17:50;12.00;99.90
45319;DHT22;31057;48.498;32.260;2023-09-08T05:19:52;12.10;99.90
45319;DHT22;31057;48.498;32.260;2023-09-08T05:21:54;12.20;99.90
45319;DHT22;31057;48.498;32.260;2023-09-08T05:23:56;12.30;99.90
45319;DHT22;31057;48.498;32.260;2023-09-08T05:25:58;12.20;99.90
45319;DHT22;31057;48.498;32.260;2023-09-08T05:28:00;12.40;99.90
45319;DHT22;31057;48.498;32.260;2023-09-08T05:30:03;12.50;99.90
45319;DHT22;31057;48.498;32.260;2023-09-08T05:32:05;12.60;99.90
45319;DHT22;31057;48.498;32.260;2023-09-08T05:34:07;12.70;99.90
45319;DHT22;31057;48.498;32.260;2023-09-08T05:36:08;12.90;99.90
45319;DHT22;31057;48.498;32.260;2023-09-08T05:38:13;12.90;99.90
45319;DHT22;31057;48.498;32.260;2023-09-08T05:40:15;13.00;99.90
45319;DHT22;31057;48.498;32.260;2023-09-08T05:42:17;13.10;99.90
45319;DHT22;31057;48.498;32.260;2023-09-08T05:44:20;13.30;99.90
45319;DHT22;31057;48.498;32.260;2023-09-08T05:46:23;13.40;99.90
45319;DHT22;31057;48.498;32.260;2023-09-08T05:48:25;13.50;99.90
45319;DHT22;31057;48.498;32.260;2023-09-08T05:50:27;13.60;99.90
45319;DHT22;31057;48.498;32.260;2023-09-08T05:52:29;13.80;99.90
45319;DHT22;31057;48.498;32.260;2023-09-08T05:54:31;14.00;99.90
45319;DHT22;31057;48.498;32.260;2023-09-08T05:56:33;14.10;99.90
45319;DHT22;31057;48.498;32.260;2023-09-08T05:58:35;14.30;99.90
45319;DHT22;31057;48.498;32.260;2023-09-08T06:00:37;14.30;99.90
45319;DHT22;31057;48.498;32.260;2023-09-08T06:02:39;14.40;99.90
45319;DHT22;31057;48.498;32.260;2023-09-08T06:04:41;14.70;99.90
45319;DHT22;31057;48.498;32.260;2023-09-08T06:06:43;14.70;99.90
45319;DHT22;31057;48.498;32.260;2023-09-08T06:08:45;14.80;99.90
45319;DHT22;31057;48.498;32.260;2023-09-08T06:10:47;15.00;99.90
45319;DHT22;31057;48.498;32.260;2023-09-08T06:12:49;15.00;99.90
45319;DHT22;31057;48.498;32.260;2023-09-08T06:14:52;15.20;99.90
45319;DHT22;31057;48.498;32.260;2023-09-08T06:16:54;15.40;99.90
45319;DHT22;31057;48.498;32.260;2023-09-08T06:18:56;15.30;99.90
45319;DHT22;31057;48.498;32.260;2023-09-08T06:20:58;15.40;99.90
45319;DHT22;31057;48.498;32.260;2023-09-08T06:23:01;15.70;99.90
45319;DHT22;31057;48.498;32.260;2023-09-08T06:25:03;15.60;99.90
45319;DHT22;31057;48.498;32.260;2023-09-08T06:27:05;15.60;99.90
45319;DHT22;31057;48.498;32.260;2023-09-08T06:29:07;15.70;99.90
45319;DHT22;31057;48.498;32.260;2023-09-08T06:31:09;16.10;99.90
45319;DHT22;31057;48.498;32.260;2023-09-08T06:33:11;16.10;99.90
45319;DHT22;31057;48.498;32.260;2023-09-08T06:35:13;16.20;99.90
45319;DHT22;31057;48.498;32.260;2023-09-08T06:37:15;16.40;99.90
45319;DHT22;31057;48.498;32.260;2023-09-08T06:39:17;16.40;99.90
45319;DHT22;31057;48.498;32.260;2023-09-08T06:41:19;16.60;99.90
45319;DHT22;31057;48.498;32.260;2023-09-08T06:43:21;16.70;99.80
45319;DHT22;31057;48.498;32.260;2023-09-08T06:45:23;16.80;97.30
45319;DHT22;31057;48.498;32.260;2023-09-08T06:47:24;17.00;97.20
45319;DHT22;31057;48.498;32.260;2023-09-08T06:49:26;17.10;98.00
45319;DHT22;31057;48.498;32.260;2023-09-08T06:51:28;17.20;96.90
45319;DHT22;31057;48.498;32.260;2023-09-08T06:53:30;17.30;96.00
45319;DHT22;31057;48.498;32.260;2023-09-08T06:55:32;17.30;93.50
45319;DHT22;31057;48.498;32.260;2023-09-08T06:57:34;17.30;93.90
45319;DHT22;31057;48.498;32.260;2023-09-08T06:59:36;17.50;94.60
45319;DHT22;31057;48.498;32.260;2023-09-08T07:01:38;17.60;92.60
45319;DHT22;31057;48.498;32.260;2023-09-08T07:03:40;17.70;91.90
45319;DHT22;31057;48.498;32.260;2023-09-08T07:05:42;17.90;92.80
45319;DHT22;31057;48.498;32.260;2023-09-08T07:07:44;18.00;91.70
45319;DHT22;31057;48.498;32.260;2023-09-08T07:09:46;18.00;92.10
45319;DHT22;31057;48.498;32.260;2023-09-08T07:11:48;17.80;92.10
45319;DHT22;31057;48.498;32.260;2023-09-08T07:13:50;17.90;92.40
45319;DHT22;31057;48.498;32.260;2023-09-08T07:15:52;18.00;92.70
45319;DHT22;31057;48.498;32.260;2023-09-08T07:17:53;17.90;92.40
45319;DHT22;31057;48.498;32.260;2023-09-08T07:19:55;18.00;92.40
45319;DHT22;31057;48.498;32.260;2023-09-08T07:21:57;18.20;92.30
45319;DHT22;31057;48.498;32.260;2023-09-08T07:23:59;18.40;92.60
45319;DHT22;31057;48.498;32.260;2023-09-08T07:26:02;18.40;92.40
45319;DHT22;31057;48.498;32.260;2023-09-08T07:28:13;18.30;93.30
45319;DHT22;31057;48.498;32.260;2023-09-08T07:30:15;18.40;92.80
45319;DHT22;31057;48.498;32.260;2023-09-08T07:32:17;18.30;92.30
45319;DHT22;31057;48.498;32.260;2023-09-08T07:34:19;18.30;92.50
45319;DHT22;31057;48.498;32.260;2023-09-08T07:36:21;18.60;92.30
45319;DHT22;31057;48.498;32.260;2023-09-08T07:38:23;18.60;91.60
45319;DHT22;31057;48.498;32.260;2023-09-08T07:40:25;18.60;90.90
45319;DHT22;31057;48.498;32.260;2023-09-08T07:42:27;18.80;91.40
45319;DHT22;31057;48.498;32.260;2023-09-08T07:44:28;18.70;92.20
45319;DHT22;31057;48.498;32.260;2023-09-08T07:46:31;18.60;92.50
45319;DHT22;31057;48.498;32.260;2023-09-08T07:48:33;18.70;92.50
45319;DHT22;31057;48.498;32.260;2023-09-08T07:50:35;18.90;92.90
45319;DHT22;31057;48.498;32.260;2023-09-08T07:52:37;18.60;91.90
45319;DHT22;31057;48.498;32.260;2023-09-08T07:54:39;18.80;92.60
45319;DHT22;31057;48.498;32.260;2023-09-08T07:56:41;18.90;92.20
45319;DHT22;31057;48.498;32.260;2023-09-08T07:58:43;19.20;92.70
45319;DHT22;31057;48.498;32.260;2023-09-08T08:00:45;19.00;91.80
45319;DHT22;31057;48.498;32.260;2023-09-08T08:02:47;19.20;91.60
45319;DHT22;31057;48.498;32.260;2023-09-08T08:04:49;19.30;90.50
45319;DHT22;31057;48.498;32.260;2023-09-08T08:06:51;19.10;90.10
45319;DHT22;31057;48.498;32.260;2023-09-08T08:08:53;19.10;89.90
45319;DHT22;31057;48.498;32.260;2023-09-08T08:10:55;19.20;90.20
45319;DHT22;31057;48.498;32.260;2023-09-08T08:12:57;19.20;88.80
45319;DHT22;31057;48.498;32.260;2023-09-08T08:15:00;19.30;88.30
45319;DHT22;31057;48.498;32.260;2023-09-08T08:17:02;19.20;88.20
45319;DHT22;31057;48.498;32.260;2023-09-08T08:19:04;19.30;87.90
45319;DHT22;31057;48.498;32.260;2023-09-08T08:21:06;19.50;87.20
45319;DHT22;31057;48.498;32.260;2023-09-08T08:23:08;19.40;83.70
45319;DHT22;31057;48.498;32.260;2023-09-08T08:25:10;19.30;84.50
45319;DHT22;31057;48.498;32.260;2023-09-08T08:27:13;19.50;85.30
45319;DHT22;31057;48.498;32.260;2023-09-08T08:29:15;19.70;85.50
45319;DHT22;31057;48.498;32.260;2023-09-08T08:31:16;19.70;83.60
45319;DHT22;31057;48.498;32.260;2023-09-08T08:33:18;19.60;83.50
45319;DHT22;31057;48.498;32.260;2023-09-08T08:35:22;19.50;81.70
45319;DHT22;31057;48.498;32.260;2023-09-08T08:37:24;19.40;82.90
45319;DHT22;31057;48.498;32.260;2023-09-08T08:39:26;19.60;81.70
45319;DHT22;31057;48.498;32.260;2023-09-08T08:41:29;19.50;82.60
45319;DHT22;31057;48.498;32.260;2023-09-08T08:43:31;19.50;84.30
45319;DHT22;31057;48.498;32.260;2023-09-08T08:45:33;19.60;80.40
45319;DHT22;31057;48.498;32.260;2023-09-08T08:47:35;19.70;81.30
45319;DHT22;31057;48.498;32.260;2023-09-08T08:49:37;20.10;80.20
45319;DHT22;31057;48.498;32.260;2023-09-08T08:51:42;19.80;80.90
45319;DHT22;31057;48.498;32.260;2023-09-08T08:53:44;19.70;81.50
45319;DHT22;31057;48.498;32.260;2023-09-08T08:55:45;19.80;81.30
45319;DHT22;31057;48.498;32.260;2023-09-08T08:57:48;19.90;81.00
45319;DHT22;31057;48.498;32.260;2023-09-08T08:59:50;19.90;79.90
45319;DHT22;31057;48.498;32.260;2023-09-08T09:01:55;20.20;81.00
45319;DHT22;31057;48.498;32.260;2023-09-08T09:03:57;19.90;79.10
45319;DHT22;31057;48.498;32.260;2023-09-08T09:05:59;19.70;79.10
45319;DHT22;31057;48.498;32.260;2023-09-08T09:08:01;19.70;78.50
45319;DHT22;31057;48.498;32.260;2023-09-08T09:10:05;20.00;79.00
45319;DHT22;31057;48.498;32.260;2023-09-08T09:12:07;20.00;79.00
45319;DHT22;31057;48.498;32.260;2023-09-08T09:14:09;20.10;78.20
45319;DHT22;31057;48.498;32.260;2023-09-08T09:16:11;19.90;78.20
45319;DHT22;31057;48.498;32.260;2023-09-08T09:18:13;20.00;77.70
45319;DHT22;31057;48.498;32.260;2023-09-08T09:20:16;20.00;77.00
45319;DHT22;31057;48.498;32.260;2023-09-08T09:22:19;20.10;75.60
45319;DHT22;31057;48.498;32.260;2023-09-08T09:24:32;20.20;76.60
45319;DHT22;31057;48.498;32.260;2023-09-08T09:26:34;20.00;76.40
45319;DHT22;31057;48.498;32.260;2023-09-08T09:28:46;20.00;76.80
45319;DHT22;31057;48.498;32.260;2023-09-08T09:30:49;20.10;77.30
45319;DHT22;31057;48.498;32.260;2023-09-08T09:33:01;20.10;76.60
45319;DHT22;31057;48.498;32.260;2023-09-08T09:35:03;20.20;74.70
45319;DHT22;31057;48.498;32.260;2023-09-08T09:37:06;20.20;75.00
45319;DHT22;31057;48.498;32.260;2023-09-08T09:39:08;20.30;74.30
45319;DHT22;31057;48.498;32.260;2023-09-08T09:41:10;20.50;74.40
45319;DHT22;31057;48.498;32.260;2023-09-08T09:43:13;20.50;70.90
45319;DHT22;31057;48.498;32.260;2023-09-08T09:45:14;20.50;71.20
45319;DHT22;31057;48.498;32.260;2023-09-08T09:47:17;20.40;71.20
45319;DHT22;31057;48.498;32.260;2023-09-08T09:49:20;20.70;69.90
45319;DHT22;31057;48.498;32.260;2023-09-08T09:51:22;20.90;71.50
45319;DHT22;31057;48.498;32.260;2023-09-08T09:53:25;20.70;70.20
45319;DHT22;31057;48.498;32.260;2023-09-08T09:55:27;20.80;72.00
45319;DHT22;31057;48.498;32.260;2023-09-08T09:57:29;20.60;71.60
45319;DHT22;31057;48.498;32.260;2023-09-08T09:59:33;20.70;72.10
45319;DHT22;31057;48.498;32.260;2023-09-08T10:01:35;20.90;70.50
45319;DHT22;31057;48.498;32.260;2023-09-08T10:03:38;20.90;72.00
45319;DHT22;31057;48.498;32.260;2023-09-08T10:05:40;21.10;73.30
45319;DHT22;31057;48.498;32.260;2023-09-08T10:07:42;20.90;71.00
45319;DHT22;31057;48.498;32.260;2023-09-08T10:09:45;21.00;69.80
45319;DHT22;31057;48.498;32.260;2023-09-08T10:11:48;21.10;70.60
45319;DHT22;31057;48.498;32.260;2023-09-08T10:13:51;21.00;67.40
45319;DHT22;31057;48.498;32.260;2023-09-08T10:15:57;20.90;68.20
45319;DHT22;31057;48.498;32.260;2023-09-08T10:17:59;20.90;67.00
45319;DHT22;31057;48.498;32.260;2023-09-08T10:20:04;21.00;65.30
45319;DHT22;31057;48.498;32.260;2023-09-08T10:22:12;21.20;66.10
45319;DHT22;31057;48.498;32.260;2023-09-08T10:24:27;21.00;66.40
45319;DHT22;31057;48.498;32.260;2023-09-08T10:26:29;21.20;66.40
45319;DHT22;31057;48.498;32.260;2023-09-08T10:28:31;21.20;64.70
45319;DHT22;31057;48.498;32.260;2023-09-08T10:30:35;21.30;65.10
45319;DHT22;31057;48.498;32.260;2023-09-08T10:32:37;21.20;65.30
45319;DHT22;31057;48.498;32.260;2023-09-08T10:34:40;21.20;64.50
45319;DHT22;31057;48.498;32.260;2023-09-08T10:36:42;21.40;65.40
45319;DHT22;31057;48.498;32.260;2023-09-08T10:38:44;21.50;65.70
45319;DHT22;31057;48.498;32.260;2023-09-08T10:40:49;21.30;66.30
45319;DHT22;31057;48.498;32.260;2023-09-08T10:43:07;21.30;67.10
45319;DHT22;31057;48.498;32.260;2023-09-08T10:45:16;21.40;67.00
45319;DHT22;31057;48.498;32.260;2023-09-08T10:47:22;21.10;66.70
45319;DHT22;31057;48.498;32.260;2023-09-08T10:49:24;21.40;65.50
45319;DHT22;31057;48.498;32.260;2023-09-08T10:51:30;21.50;66.00
45319;DHT22;31057;48.498;32.260;2023-09-08T10:53:32;21.70;65.00
45319;DHT22;31057;48.498;32.260;2023-09-08T10:55:39;21.80;65.20
45319;DHT22;31057;48.498;32.260;2023-09-08T10:57:45;21.80;63.90
45319;DHT22;31057;48.498;32.260;2023-09-08T10:59:54;21.90;64.70
45319;DHT22;31057;48.498;32.260;2023-09-08T11:01:56;21.60;63.00
45319;DHT22;31057;48.498;32.260;2023-09-08T11:03:58;21.50;63.70
45319;DHT22;31057;48.498;32.260;2023-09-08T11:06:03;21.60;63.00
45319;DHT22;31057;48.498;32.260;2023-09-08T11:08:05;21.70;63.30
45319;DHT22;31057;48.498;32.260;2023-09-08T11:10:07;21.90;63.40
45319;DHT22;31057;48.498;32.260;2023-09-08T11:12:09;21.90;63.40
45319;DHT22;31057;48.498;32.260;2023-09-08T11:14:11;21.80;61.70
45319;DHT22;31057;48.498;32.260;2023-09-08T11:16:14;21.90;61.50
45319;DHT22;31057;48.498;32.260;2023-09-08T11:18:16;22.00;61.30
45319;DHT22;31057;48.498;32.260;2023-09-08T11:20:25;22.00;61.40
45319;DHT22;31057;48.498;32.260;2023-09-08T11:22:27;22.10;60.00
45319;DHT22;31057;48.498;32.260;2023-09-08T11:24:30;21.90;59.70
45319;DHT22;31057;48.498;32.260;2023-09-08T11:26:33;22.10;60.20
45319;DHT22;31057;48.498;32.260;2023-09-08T11:28:35;22.10;59.60
45319;DHT22;31057;48.498;32.260;2023-09-08T11:30:41;21.90;60.00
45319;DHT22;31057;48.498;32.260;2023-09-08T11:32:43;21.80;60.40
45319;DHT22;31057;48.498;32.260;2023-09-08T11:34:45;21.90;60.60
45319;DHT22;31057;48.498;32.260;2023-09-08T11:36:47;22.00;60.20
45319;DHT22;31057;48.498;32.260;2023-09-08T11:38:48;22.00;61.10
45319;DHT22;31057;48.498;32.260;2023-09-08T11:40:50;22.10;61.60
45319;DHT22;31057;48.498;32.260;2023-09-08T11:42:53;22.20;60.00
45319;DHT22;31057;48.498;32.260;2023-09-08T11:44:56;22.30;59.30
45319;DHT22;31057;48.498;32.260;2023-09-08T11:46:58;22.20;58.80
45319;DHT22;31057;48.498;32.260;2023-09-08T11:49:03;22.40;59.10
45319;DHT22;31057;48.498;32.260;2023-09-08T11:51:08;22.30;58.70
45319;DHT22;31057;48.498;32.260;2023-09-08T11:53:10;22.50;59.00
45319;DHT22;31057;48.498;32.260;2023-09-08T11:55:12;22.30;58.60
45319;DHT22;31057;48.498;32.260;2023-09-08T11:57:14;22.30;58.80
45319;DHT22;31057;48.498;32.260;2023-09-08T11:59:16;22.20;59.10
45319;DHT22;31057;48.498;32.260;2023-09-08T12:01:19;22.60;59.20
45319;DHT22;31057;48.498;32.260;2023-09-08T12:03:21;22.70;59.30
45319;DHT22;31057;48.498;32.260;2023-09-08T12:05:24;22.40;58.80
45319;DHT22;31057;48.498;32.260;2023-09-08T12:07:26;22.70;59.10
45319;DHT22;31057;48.498;32.260;2023-09-08T12:09:28;22.60;56.40
45319;DHT22;31057;48.498;32.260;2023-09-08T12:11:33;22.40;55.60
45319;DHT22;31057;48.498;32.260;2023-09-08T12:13:36;22.50;56.10
45319;DHT22;31057;48.498;32.260;2023-09-08T12:15:39;22.60;56.10
45319;DHT22;31057;48.498;32.260;2023-09-08T12:17:48;22.80;55.70
45319;DHT22;31057;48.498;32.260;2023-09-08T12:19:50;23.00;55.90
45319;DHT22;31057;48.498;32.260;2023-09-08T12:21:55;22.70;54.60
45319;DHT22;31057;48.498;32.260;2023-09-08T12:23:58;22.70;54.70
45319;DHT22;31057;48.498;32.260;2023-09-08T12:25:59;22.90;53.80
45319;DHT22;31057;48.498;32.260;2023-09-08T12:28:02;22.70;54.50
45319;DHT22;31057;48.498;32.260;2023-09-08T12:30:04;22.80;54.90
45319;DHT22;31057;48.498;32.260;2023-09-08T12:32:07;22.70;54.50
45319;DHT22;31057;48.498;32.260;2023-09-08T12:34:09;22.60;53.90
45319;DHT22;31057;48.498;32.260;2023-09-08T12:36:16;22.70;55.10
45319;DHT22;31057;48.498;32.260;2023-09-08T12:38:18;22.90;55.50
45319;DHT22;31057;48.498;32.260;2023-09-08T12:40:20;22.90;55.10
45319;DHT22;31057;48.498;32.260;2023-09-08T12:42:22;23.10;54.80
45319;DHT22;31057;48.498;32.260;2023-09-08T12:44:30;23.10;54.90
45319;DHT22;31057;48.498;32.260;2023-09-08T12:46:32;22.80;53.90